TimeCST,TemperatureF,Dew PointF,Humidity,Sea Level PressureIn,VisibilityMPH,Wind Direction,Wind SpeedMPH,Gust SpeedMPH,PrecipitationIn,Events,Conditions,WindDirDegrees,DateUTC
12:53 AM,69.8,62.6,78,29.75,10.0,SSE,15.0,23.0,N/A,,Overcast,160,2010-12-31 06:53:00
1:53 AM,69.1,63.0,81,29.77,10.0,SSE,10.4,18.4,N/A,,Overcast,160,2010-12-31 07:53:00
2:53 AM,69.1,64.0,84,29.76,10.0,SSE,12.7,20.7,0.00,Rain,Light Rain,150,2010-12-31 08:53:00
3:53 AM,70.0,64.0,81,29.77,10.0,South,15.0,23.0,0.00,,Overcast,170,2010-12-31 09:53:00
4:53 AM,68.0,64.0,87,29.80,10.0,SSE,10.4,16.1,0.01,Rain,Light Rain,160,2010-12-31 10:53:00
5:53 AM,68.0,64.0,87,29.79,10.0,SSE,9.2,-,0.00,,Mostly Cloudy,160,2010-12-31 11:53:00
6:26 AM,68.0,64.4,88,29.79,10.0,SSE,11.5,20.7,N/A,,Overcast,160,2010-12-31 12:26:00
6:41 AM,68.0,64.4,88,29.79,10.0,SSE,9.2,18.4,N/A,,Overcast,160,2010-12-31 12:41:00
6:53 AM,69.1,64.9,87,29.81,10.0,SSE,10.4,-,N/A,,Overcast,160,2010-12-31 12:53:00
7:15 AM,69.8,64.4,83,29.80,10.0,SSE,10.4,20.7,N/A,,Overcast,160,2010-12-31 13:15:00
7:43 AM,69.8,64.4,83,29.80,10.0,SSE,11.5,-,N/A,,Overcast,160,2010-12-31 13:43:00
7:53 AM,70.0,64.9,84,29.81,10.0,SSE,10.4,-,N/A,,Overcast,160,2010-12-31 13:53:00
8:53 AM,71.1,66.0,84,29.82,10.0,SSE,10.4,-,N/A,,Overcast,160,2010-12-31 14:53:00
9:53 AM,73.0,66.0,79,29.83,10.0,SSE,10.4,21.9,N/A,,Overcast,160,2010-12-31 15:53:00
10:53 AM,73.0,66.0,79,29.83,10.0,South,11.5,19.6,N/A,,Overcast,170,2010-12-31 16:53:00
11:53 AM,73.9,66.9,79,29.81,10.0,South,10.4,-,0.00,,Overcast,190,2010-12-31 17:53:00
12:53 PM,75.2,66.2,73,29.76,10.0,South,8.1,-,N/A,,Overcast,180,2010-12-31 18:53:00
1:41 PM,71.6,68.0,88,29.72,3.0,SSE,4.6,-,0.02,Rain-Thunderstorm,Thunderstorms and Rain,160,2010-12-31 19:41:00
1:53 PM,72.0,68.0,87,29.71,6.0,NW,4.6,-,0.04,Rain-Thunderstorm,Light Thunderstorms and Rain,310,2010-12-31 19:53:00
1:59 PM,68.0,64.4,88,29.74,2.5,West,21.9,33.4,0.12,Rain-Thunderstorm,Heavy Thunderstorms and Rain,280,2010-12-31 19:59:00
2:02 PM,64.4,60.8,88,29.74,1.2,WSW,18.4,33.4,0.20,Rain-Thunderstorm,Heavy Thunderstorms and Rain,240,2010-12-31 20:02:00
2:04 PM,62.6,60.8,94,29.74,0.8,WSW,13.8,33.4,0.27,Rain-Thunderstorm,Heavy Thunderstorms and Rain,240,2010-12-31 20:04:00
2:08 PM,62.6,60.8,94,29.74,1.0,SW,12.7,28.8,0.28,Rain-Thunderstorm,Heavy Thunderstorms and Rain,230,2010-12-31 20:08:00
2:14 PM,64.4,62.6,94,29.74,4.0,West,9.2,-,0.28,Rain-Thunderstorm,Light Thunderstorms and Rain,280,2010-12-31 20:14:00
2:22 PM,64.4,62.6,94,29.73,10.0,WNW,8.1,-,0.28,Rain-Thunderstorm,Light Rain,300,2010-12-31 20:22:00
2:53 PM,66.9,63.0,87,29.75,10.0,Calm,Calm,-,0.29,Rain,Light Rain,0,2010-12-31 20:53:00
3:53 PM,68.0,64.9,90,29.74,10.0,Calm,Calm,-,0.00,Rain,Light Rain,0,2010-12-31 21:53:00
4:53 PM,72.0,68.0,87,29.75,10.0,South,6.9,-,0.00,,Overcast,180,2010-12-31 22:53:00
5:51 PM,73.4,68.0,83,29.74,10.0,South,10.4,-,N/A,Thunderstorm,Mostly Cloudy,180,2010-12-31 23:51:00
5:53 PM,73.0,68.0,84,29.75,10.0,South,6.9,-,N/A,Thunderstorm,Mostly Cloudy,180,2010-12-31 23:53:00
6:21 PM,71.6,68.0,88,29.74,10.0,South,8.1,-,N/A,,Mostly Cloudy,170,2011-01-01 00:21:00
6:53 PM,72.0,68.0,87,29.76,10.0,South,9.2,-,N/A,,Mostly Cloudy,190,2011-01-01 00:53:00
7:53 PM,72.0,68.0,87,29.78,10.0,SSW,8.1,-,N/A,,Overcast,200,2011-01-01 01:53:00
8:03 PM,71.6,68.0,88,29.77,10.0,SSW,10.4,18.4,N/A,,Overcast,200,2011-01-01 02:03:00
8:53 PM,61.0,55.9,83,29.81,10.0,NW,17.3,26.5,0.00,Rain,Light Rain,320,2011-01-01 02:53:00
9:00 PM,59.0,55.4,88,29.80,7.0,NNW,16.1,23.0,0.01,Rain,Light Rain,330,2011-01-01 03:00:00
9:11 PM,57.2,53.6,88,29.81,5.0,NNW,16.1,25.3,0.03,Rain-Thunderstorm,Light Rain,330,2011-01-01 03:11:00
9:20 PM,57.2,53.6,88,29.80,10.0,NNW,18.4,24.2,0.04,Rain-Thunderstorm,Light Rain,330,2011-01-01 03:20:00
9:53 PM,55.9,52.0,87,29.85,7.0,NW,8.1,-,0.08,Rain-Thunderstorm,Light Rain,310,2011-01-01 03:53:00
10:04 PM,55.4,51.8,88,29.84,9.0,NNW,12.7,-,0.00,Rain,Light Rain,330,2011-01-01 04:04:00
10:53 PM,55.9,51.1,84,29.86,10.0,West,4.6,-,0.02,Rain,Light Rain,280,2011-01-01 04:53:00
11:23 PM,55.4,51.8,88,29.85,10.0,West,4.6,-,0.00,Rain,Light Rain,270,2011-01-01 05:23:00
11:53 PM,55.9,50.0,80,29.87,10.0,North,4.6,-,0.00,,Overcast,350,2011-01-01 05:53:00